createdAt,value
2022-12-20T00:02:05.780Z,76.67
2022-12-20T00:04:34.855Z,79.00
2022-12-20T00:07:04.445Z,76.00
2022-12-20T00:09:34.091Z,76.00
2022-12-20T00:12:03.888Z,76.33
2022-12-20T00:14:33.454Z,73.33
2022-12-20T00:17:03.016Z,76.67
2022-12-20T00:19:32.565Z,76.00
2022-12-20T00:22:02.164Z,70.67
2022-12-20T00:24:33.163Z,70.67
2022-12-20T00:27:02.792Z,76.33
2022-12-20T00:29:32.382Z,76.00
2022-12-20T00:32:01.974Z,71.33
2022-12-20T00:34:31.621Z,74.33
2022-12-20T00:37:01.208Z,74.33
2022-12-20T00:39:30.756Z,76.00
2022-12-20T00:42:00.324Z,72.67
2022-12-20T00:44:30.084Z,74.00
2022-12-20T00:46:59.761Z,73.33
2022-12-20T00:49:30.758Z,73.33
2022-12-20T00:52:00.294Z,66.67
2022-12-20T00:54:29.926Z,75.00
2022-12-20T00:56:59.635Z,76.67
2022-12-20T00:59:29.262Z,75.00
2022-12-20T01:01:58.931Z,75.33
2022-12-20T01:04:28.596Z,73.67
2022-12-20T01:06:58.220Z,79.67
2022-12-20T01:09:27.784Z,75.33
2022-12-20T01:11:57.394Z,74.00
2022-12-20T01:14:27.089Z,77.67
2022-12-20T01:16:56.772Z,73.00
2022-12-20T01:19:26.328Z,70.00
2022-12-20T01:21:55.917Z,76.67
2022-12-20T01:24:25.804Z,75.67
2022-12-20T01:26:53.596Z,67.00
2022-12-20T01:29:23.171Z,76.00
2022-12-20T01:31:54.088Z,75.33
2022-12-20T01:34:23.780Z,89.67
2022-12-20T01:36:53.388Z,75.33
2022-12-20T01:39:23.231Z,73.67
2022-12-20T01:41:52.827Z,79.00
2022-12-20T01:44:22.305Z,80.33
2022-12-20T01:46:53.094Z,76.00
2022-12-20T01:49:36.799Z,77.00
2022-12-20T01:52:14.963Z,67.33
2022-12-20T01:55:09.331Z,74.33
2022-12-20T01:57:51.833Z,65.00
2022-12-20T02:00:21.939Z,77.00
2022-12-20T02:02:52.186Z,98.33
2022-12-20T02:05:24.657Z,74.67
2022-12-20T02:07:57.982Z,73.00
2022-12-20T02:11:23.387Z,74.33
2022-12-20T02:14:35.710Z,63.00
2022-12-20T02:17:45.369Z,75.00
2022-12-20T02:21:09.933Z,70.50
2022-12-20T02:24:27.027Z,74.33
2022-12-20T02:27:11.079Z,75.00
2022-12-20T02:30:18.010Z,73.67
2022-12-20T02:33:12.030Z,73.67
2022-12-20T02:35:42.875Z,75.67
2022-12-20T02:38:38.649Z,75.33
2022-12-20T02:41:37.574Z,75.00
2022-12-20T02:44:34.404Z,74.33
2022-12-20T02:47:10.043Z,73.00
2022-12-20T02:49:42.385Z,73.33
2022-12-20T02:52:14.724Z,72.33
2022-12-20T02:54:44.396Z,72.00
2022-12-20T02:58:00.291Z,71.67
2022-12-20T03:00:41.024Z,74.67
2022-12-20T03:03:24.061Z,72.00
2022-12-20T03:05:56.650Z,72.33
2022-12-20T03:08:26.970Z,69.67
2022-12-20T03:10:56.868Z,72.33
2022-12-20T03:13:26.898Z,69.00
2022-12-20T03:15:56.439Z,69.33
2022-12-20T03:18:26.040Z,76.00
2022-12-20T03:20:55.655Z,71.00
2022-12-20T03:23:25.311Z,73.00
2022-12-20T03:25:54.927Z,69.67
2022-12-20T03:28:24.559Z,74.67
2022-12-20T03:30:54.173Z,68.67
2022-12-20T03:33:23.730Z,69.00
2022-12-20T03:35:53.298Z,72.33
2022-12-20T03:38:22.823Z,70.67
2022-12-20T03:40:52.421Z,74.00
2022-12-20T03:43:22.054Z,81.33
2022-12-20T03:45:51.756Z,73.33
2022-12-20T03:48:21.319Z,71.00
2022-12-20T03:50:50.975Z,73.67
2022-12-20T03:53:20.546Z,75.00
2022-12-20T03:55:50.081Z,71.33
2022-12-20T03:58:19.604Z,72.33
2022-12-20T04:00:49.133Z,70.00
2022-12-20T04:03:19.297Z,76.33
2022-12-20T04:05:48.854Z,71.67
2022-12-20T04:08:18.537Z,77.67
2022-12-20T04:11:06.526Z,65.67
2022-12-20T04:13:36.109Z,77.00
2022-12-20T04:16:06.931Z,119.25
2022-12-20T04:18:36.534Z,74.33
2022-12-20T04:21:07.449Z,68.67
2022-12-20T04:23:40.833Z,119.75
2022-12-20T04:26:11.713Z,189.00
2022-12-20T04:28:41.440Z,121.67
2022-12-20T04:31:11.522Z,92.33
2022-12-20T04:33:41.806Z,74.67
2022-12-20T04:36:11.645Z,72.00
2022-12-20T04:38:41.629Z,75.00
2022-12-20T04:41:22.484Z,74.33
2022-12-20T04:43:58.266Z,83.33
2022-12-20T04:46:28.213Z,70.67
2022-12-20T04:48:59.651Z,72.33
2022-12-20T04:51:29.749Z,72.67
2022-12-20T04:53:59.295Z,67.33
2022-12-20T04:56:30.126Z,88.00
2022-12-20T04:59:00.100Z,87.33
2022-12-20T05:01:29.936Z,88.67
2022-12-20T05:03:59.628Z,85.50
2022-12-20T05:06:29.219Z,63.67
2022-12-20T05:08:58.812Z,70.67
2022-12-20T05:11:28.394Z,79.33
2022-12-20T05:13:57.986Z,73.67
2022-12-20T05:16:27.588Z,69.67
2022-12-20T05:18:57.253Z,68.00
2022-12-20T05:21:45.318Z,68.00
2022-12-20T05:24:33.635Z,71.00
2022-12-20T05:27:03.271Z,71.00
2022-12-20T05:29:32.809Z,69.00
2022-12-20T05:32:02.429Z,71.33
2022-12-20T05:34:32.016Z,66.67
2022-12-20T05:37:01.507Z,61.00
2022-12-20T05:39:31.243Z,66.00
2022-12-20T05:42:01.733Z,70.33
2022-12-20T05:44:31.430Z,71.33
2022-12-20T05:47:01.179Z,67.33
2022-12-20T05:49:30.808Z,72.33
2022-12-20T05:52:01.866Z,77.33
2022-12-20T05:54:31.600Z,77.67
2022-12-20T05:57:01.409Z,80.00
2022-12-20T05:59:31.029Z,79.33
2022-12-20T06:02:00.820Z,82.67
2022-12-20T06:04:33.710Z,74.67
2022-12-20T06:07:03.287Z,73.33
2022-12-20T06:09:33.518Z,71.67
2022-12-20T06:12:03.232Z,65.67
2022-12-20T06:14:32.803Z,77.33
2022-12-20T06:17:02.764Z,85.33
2022-12-20T06:19:32.598Z,80.00
2022-12-20T06:22:02.234Z,83.33
2022-12-20T06:24:31.825Z,93.00
2022-12-20T06:27:02.443Z,87.67
2022-12-20T06:29:32.177Z,103.00
2022-12-20T06:32:01.879Z,96.33
2022-12-20T06:34:32.685Z,88.33
2022-12-20T06:37:02.392Z,75.67
2022-12-20T06:39:32.088Z,87.67
2022-12-20T06:42:01.631Z,73.67
2022-12-20T06:44:31.401Z,82.00
2022-12-20T06:47:01.601Z,73.67
2022-12-20T06:49:31.233Z,82.33
2022-12-20T06:52:00.855Z,74.33
2022-12-20T06:54:30.439Z,75.67
2022-12-20T06:57:00.043Z,78.00
2022-12-20T06:59:29.672Z,73.00
2022-12-20T07:01:59.544Z,77.33
2022-12-20T07:04:29.227Z,71.67
2022-12-20T07:06:58.796Z,73.67
2022-12-20T07:09:28.299Z,72.00
2022-12-20T07:11:58.739Z,67.33
2022-12-20T07:14:28.548Z,70.00
2022-12-20T07:16:58.085Z,69.00
2022-12-20T07:19:27.844Z,70.33
2022-12-20T07:21:57.404Z,66.67
2022-12-20T07:24:27.002Z,61.67
2022-12-20T07:26:56.707Z,65.67
2022-12-20T07:29:26.424Z,67.67
2022-12-20T07:31:56.075Z,70.00
2022-12-20T07:34:25.707Z,66.00
2022-12-20T07:36:55.643Z,76.00
2022-12-20T07:39:25.422Z,68.00
2022-12-20T07:41:56.115Z,69.67
2022-12-20T07:44:25.759Z,71.00
2022-12-20T07:46:55.382Z,72.33
2022-12-20T07:49:24.964Z,63.00
2022-12-20T07:51:59.412Z,82.00
2022-12-20T07:54:41.106Z,30.00
2022-12-20T07:57:28.619Z,63.00
2022-12-20T08:00:01.714Z,60.33
2022-12-20T08:03:21.609Z,56.33
2022-12-20T08:05:57.151Z,93.50
2022-12-20T08:08:27.486Z,71.00
2022-12-20T08:10:58.025Z,111.00
2022-12-20T08:13:27.664Z,56.33
2022-12-20T08:15:55.510Z,43.50
2022-12-20T08:18:23.258Z,59.00
2022-12-20T08:20:52.900Z,51.50
2022-12-20T08:23:21.624Z,52.50
2022-12-20T08:25:51.244Z,57.67
2022-12-20T08:28:20.825Z,59.33
2022-12-20T08:30:48.705Z,52.00
2022-12-20T08:33:17.433Z,50.50
2022-12-20T08:35:45.345Z,53.00
2022-12-20T08:38:15.007Z,58.00
2022-12-20T08:40:43.678Z,48.00
2022-12-20T08:43:13.124Z,58.33
2022-12-20T08:45:42.666Z,51.67
2022-12-20T08:48:12.371Z,63.67
2022-12-20T08:50:42.086Z,53.00
2022-12-20T08:53:11.675Z,66.67
2022-12-20T08:55:40.741Z,47.00
2022-12-20T08:58:10.199Z,45.33
2022-12-20T09:00:38.915Z,54.50
2022-12-20T09:03:08.530Z,47.00
2022-12-20T09:05:46.038Z,55.33
2022-12-20T09:08:16.968Z,68.67
2022-12-20T09:10:46.505Z,44.67
2022-12-20T09:13:16.095Z,57.00
2022-12-20T09:15:46.143Z,52.67
2022-12-20T09:18:15.659Z,60.33
2022-12-20T09:20:48.150Z,77.67
2022-12-20T09:23:17.656Z,55.00
2022-12-20T09:25:53.421Z,59.50
2022-12-20T09:28:24.366Z,60.00
2022-12-20T09:30:53.125Z,50.50
2022-12-20T09:33:21.832Z,51.50
2022-12-20T09:35:51.497Z,56.33
2022-12-20T09:38:21.155Z,70.33
2022-12-20T09:40:56.601Z,42.00
2022-12-20T09:43:26.433Z,60.33
2022-12-20T09:46:03.035Z,44.00
2022-12-20T09:48:40.661Z,48.33
2022-12-20T09:51:52.944Z,53.67
2022-12-20T09:55:02.914Z,48.50
2022-12-20T09:58:34.480Z,45.50
2022-12-20T10:01:25.374Z,38.50
2022-12-20T10:03:58.198Z,33.50
2022-12-20T10:07:18.741Z,47.00
2022-12-20T10:10:05.436Z,74.67
2022-12-20T10:13:06.813Z,51.33
2022-12-20T10:15:51.430Z,56.67
2022-12-20T10:19:14.062Z,42.67
2022-12-20T10:22:38.103Z,36.00
2022-12-20T10:25:23.074Z,26.50
2022-12-20T10:27:54.878Z,51.00
2022-12-20T10:30:32.539Z,46.00
2022-12-20T10:33:02.892Z,48.67
2022-12-20T10:35:40.962Z,44.33
2022-12-20T10:38:14.429Z,42.67
2022-12-20T10:44:16.374Z,45.33
2022-12-20T10:47:01.047Z,46.00
2022-12-20T10:49:43.151Z,43.50
2022-12-20T10:52:15.616Z,43.00
2022-12-20T10:54:48.678Z,39.33
2022-12-20T10:57:29.831Z,39.67
2022-12-20T11:00:09.148Z,42.00
2022-12-20T11:02:43.036Z,43.00
2022-12-20T11:05:14.604Z,44.00
2022-12-20T11:08:37.484Z,43.33
2022-12-20T11:11:24.733Z,42.00
2022-12-20T11:13:54.245Z,42.00
2022-12-20T11:16:44.489Z,46.00
2022-12-20T11:19:47.223Z,39.00
2022-12-20T11:22:46.587Z,48.50
2022-12-20T11:25:56.726Z,43.00
2022-12-20T11:28:38.103Z,26.00
2022-12-20T11:31:43.939Z,41.50
2022-12-20T11:34:49.483Z,40.00
2022-12-20T11:37:29.453Z,39.50
2022-12-20T11:40:33.170Z,42.33
2022-12-20T11:43:31.768Z,34.00
2022-12-20T11:46:39.095Z,45.00
2022-12-20T11:49:32.081Z,41.00
2022-12-20T11:52:43.368Z,40.67
2022-12-20T11:55:29.930Z,40.00
2022-12-20T11:58:33.023Z,42.00
2022-12-20T12:01:12.973Z,38.00
2022-12-20T12:03:59.683Z,41.00
2022-12-20T12:06:46.488Z,47.50
2022-12-20T12:09:50.225Z,61.67
2022-12-20T12:12:34.935Z,67.00
2022-12-20T12:15:24.785Z,58.00
2022-12-20T12:18:22.620Z,67.33
2022-12-20T12:21:26.936Z,82.67
2022-12-20T12:24:39.333Z,67.67
2022-12-20T12:27:27.336Z,55.33
2022-12-20T12:29:59.698Z,58.33
2022-12-20T12:32:56.079Z,54.33
2022-12-20T12:35:55.509Z,55.33
2022-12-20T12:39:48.812Z,80.67
2022-12-20T12:43:12.599Z,63.00
2022-12-20T12:46:01.346Z,64.67
2022-12-20T12:48:52.326Z,87.00
2022-12-20T12:51:36.526Z,79.33
2022-12-20T12:54:38.167Z,69.67
2022-12-20T12:57:18.481Z,65.33
2022-12-20T12:59:51.995Z,73.33
2022-12-20T13:02:28.156Z,64.00
2022-12-20T13:05:09.231Z,65.67
2022-12-20T13:07:40.204Z,44.50
2022-12-20T13:10:09.627Z,39.33
2022-12-20T13:12:47.678Z,164.75
2022-12-20T13:15:21.727Z,125.50
2022-12-20T13:18:12.240Z,58.00
2022-12-20T13:20:42.270Z,84.33
2022-12-20T13:23:14.014Z,159.25
2022-12-20T13:25:49.146Z,67.33
2022-12-20T13:28:27.428Z,77.00
2022-12-20T13:31:04.689Z,92.25
2022-12-20T13:33:51.877Z,71.00
2022-12-20T13:36:39.361Z,62.00
2022-12-20T13:39:28.891Z,57.67
2022-12-20T13:42:37.371Z,58.00
2022-12-20T13:45:12.659Z,61.33
2022-12-20T13:47:54.779Z,42.00
2022-12-20T13:50:40.780Z,105.75
2022-12-20T13:53:21.302Z,78.00
2022-12-20T13:55:50.428Z,112.00
2022-12-20T13:58:27.561Z,88.67
2022-12-20T14:01:12.777Z,70.00
2022-12-20T14:03:48.232Z,82.33
2022-12-20T14:06:26.552Z,68.00
2022-12-20T14:08:56.598Z,63.33
2022-12-20T14:11:28.220Z,125.25
2022-12-20T14:14:03.490Z,150.75
2022-12-20T14:16:34.445Z,135.00
2022-12-20T14:19:12.690Z,83.00
2022-12-20T14:21:46.250Z,76.67
2022-12-20T14:24:21.402Z,72.00
2022-12-20T14:26:54.361Z,137.75
2022-12-20T14:29:32.596Z,308.50
2022-12-20T14:32:03.293Z,239.75
2022-12-20T14:34:41.510Z,90.00
2022-12-20T14:37:30.885Z,81.33
2022-12-20T14:40:12.764Z,146.67
2022-12-20T14:42:42.498Z,203.67
2022-12-20T14:45:18.949Z,120.50
2022-12-20T14:48:03.282Z,99.00
2022-12-20T14:50:40.988Z,140.75
2022-12-20T14:53:27.775Z,94.75
2022-12-20T14:55:58.402Z,129.25
2022-12-20T14:58:32.785Z,131.67
2022-12-20T15:01:27.321Z,116.75
2022-12-20T15:04:00.957Z,111.25
2022-12-20T15:06:49.366Z,108.00
2022-12-20T15:09:20.398Z,123.00
2022-12-20T15:11:52.432Z,250.50
2022-12-20T15:14:39.407Z,106.00
2022-12-20T15:17:15.959Z,116.50
2022-12-20T15:19:46.806Z,145.75
2022-12-20T15:22:20.463Z,168.25
2022-12-20T15:24:51.497Z,98.75
2022-12-20T15:27:21.029Z,66.33
2022-12-20T15:29:50.955Z,91.67
2022-12-20T15:32:30.013Z,87.00
2022-12-20T15:34:59.892Z,81.00
2022-12-20T15:37:30.370Z,132.50
2022-12-20T15:40:00.061Z,96.67
2022-12-20T15:42:29.792Z,81.00
2022-12-20T15:44:59.464Z,104.33
2022-12-20T15:47:29.143Z,85.67
2022-12-20T15:49:59.865Z,117.25
2022-12-20T15:52:28.639Z,117.50
2022-12-20T15:54:59.151Z,98.50
2022-12-20T15:57:28.856Z,118.00
2022-12-20T16:00:01.090Z,81.00
2022-12-20T16:02:33.310Z,80.00
2022-12-20T16:05:03.143Z,70.67
2022-12-20T16:07:32.782Z,95.00
2022-12-20T16:10:02.813Z,107.00
2022-12-20T16:12:35.930Z,118.00
2022-12-20T16:15:08.279Z,105.67
2022-12-20T16:17:38.403Z,176.00
2022-12-20T16:20:11.838Z,106.25
2022-12-20T16:22:41.566Z,108.00
2022-12-20T16:25:32.097Z,112.50
2022-12-20T16:28:03.587Z,107.25
2022-12-20T16:30:34.944Z,113.50
2022-12-20T16:33:06.688Z,134.75
2022-12-20T16:35:37.514Z,76.00
2022-12-20T16:38:07.256Z,84.00
2022-12-20T16:40:37.748Z,124.25
2022-12-20T16:43:16.053Z,87.67
2022-12-20T16:45:46.890Z,78.00
2022-12-20T16:48:17.532Z,83.33
2022-12-20T16:50:47.131Z,81.67
2022-12-20T16:53:16.804Z,85.67
2022-12-20T16:55:46.457Z,83.33
2022-12-20T16:58:16.461Z,79.00
2022-12-20T17:00:46.091Z,79.67
2022-12-20T17:03:15.773Z,79.00
2022-12-20T17:05:46.190Z,70.00
2022-12-20T17:11:02.207Z,77.67
2022-12-20T17:17:51.305Z,68.00
2022-12-20T17:20:23.869Z,80.00
2022-12-20T17:25:40.332Z,81.33
2022-12-20T17:28:09.885Z,68.00
2022-12-20T17:30:39.603Z,77.67
2022-12-20T17:33:15.523Z,71.67
2022-12-20T17:35:45.099Z,77.00
2022-12-20T17:38:14.700Z,71.67
2022-12-20T17:40:44.337Z,80.67
2022-12-20T17:43:16.376Z,79.00
2022-12-20T17:45:45.990Z,70.33
2022-12-20T17:48:15.669Z,92.00
2022-12-20T17:50:45.279Z,91.67
2022-12-20T17:53:14.892Z,88.67
2022-12-20T17:55:44.684Z,96.33
2022-12-20T17:58:15.941Z,117.75
2022-12-20T18:00:43.716Z,152.50
2022-12-20T18:03:52.977Z,97.00
2022-12-20T18:06:08.379Z,92.67
2022-12-20T18:08:37.407Z,66.50
2022-12-20T18:11:10.279Z,107.75
2022-12-20T18:13:47.756Z,88.00
2022-12-20T18:16:28.702Z,86.33
2022-12-20T18:18:59.556Z,77.33
2022-12-20T18:21:29.286Z,85.33
2022-12-20T18:23:59.047Z,101.00
2022-12-20T18:26:33.640Z,116.75
2022-12-20T18:29:04.124Z,164.25
2022-12-20T18:31:36.298Z,173.13
2022-12-20T18:34:06.391Z,167.00
2022-12-20T18:36:38.680Z,132.25
2022-12-20T18:39:11.961Z,93.00
2022-12-20T18:41:44.372Z,114.75
2022-12-20T18:44:14.060Z,101.00
2022-12-20T18:46:43.722Z,110.00
2022-12-20T18:49:14.168Z,144.00
2022-12-20T18:51:44.686Z,131.75
2022-12-20T18:54:15.171Z,116.25
2022-12-20T18:56:44.863Z,99.67
2022-12-20T18:59:14.592Z,97.67
2022-12-20T19:01:45.282Z,118.00
2022-12-20T19:04:22.474Z,113.25
2022-12-20T19:06:55.026Z,120.00
2022-12-20T19:09:24.946Z,268.75
2022-12-20T19:11:57.388Z,145.67
2022-12-20T19:14:27.744Z,93.67
2022-12-20T19:16:57.435Z,94.67
2022-12-20T19:19:28.029Z,93.00
2022-12-20T19:21:58.992Z,261.67
2022-12-20T19:24:29.495Z,121.75
2022-12-20T19:26:59.203Z,177.33
2022-12-20T19:29:29.721Z,157.25
2022-12-20T19:31:57.520Z,150.50
2022-12-20T19:34:27.165Z,95.00
2022-12-20T19:36:57.896Z,99.00
2022-12-20T19:39:28.971Z,107.00
2022-12-20T19:42:23.126Z,72.33
2022-12-20T19:44:50.428Z,75.33
2022-12-20T19:47:20.085Z,93.67
2022-12-20T19:49:49.785Z,86.00
2022-12-20T19:52:24.813Z,99.67
2022-12-20T19:54:55.948Z,115.50
2022-12-20T19:57:26.425Z,100.25
2022-12-20T19:59:57.333Z,132.75
2022-12-20T20:02:27.132Z,103.67
2022-12-20T20:04:57.785Z,116.00
2022-12-20T20:07:27.434Z,94.00
2022-12-20T20:09:57.058Z,83.00
2022-12-20T20:12:26.720Z,89.33
2022-12-20T20:14:56.394Z,104.33
2022-12-20T20:17:26.896Z,107.75
2022-12-20T20:19:57.363Z,110.75
2022-12-20T20:22:27.823Z,97.75
2022-12-20T20:24:57.441Z,95.00
2022-12-20T20:27:27.050Z,95.33
2022-12-20T20:29:56.693Z,75.33
2022-12-20T20:32:27.233Z,136.00
2022-12-20T20:34:56.708Z,71.00
2022-12-20T20:37:27.228Z,159.00
2022-12-20T20:39:56.833Z,81.00
2022-12-20T20:42:26.453Z,77.33
2022-12-20T20:44:56.107Z,108.67
2022-12-20T20:47:25.929Z,73.67
2022-12-20T20:49:55.643Z,77.67
2022-12-20T20:52:25.333Z,82.00
2022-12-20T20:54:54.921Z,71.00
2022-12-20T20:57:24.520Z,71.67
2022-12-20T20:59:54.110Z,70.67
2022-12-20T21:02:24.698Z,70.00
2022-12-20T21:05:35.748Z,70.33
2022-12-20T21:07:45.741Z,92.00
2022-12-20T21:10:15.670Z,93.67
2022-12-20T21:12:46.369Z,104.25
2022-12-20T21:15:24.309Z,96.33
2022-12-20T21:17:55.753Z,68.67
2022-12-20T21:20:26.429Z,76.33
2022-12-20T21:22:57.437Z,73.33
2022-12-20T21:25:27.475Z,72.33
2022-12-20T21:27:57.855Z,73.67
2022-12-20T21:30:27.459Z,72.33
2022-12-20T21:32:57.111Z,81.00
2022-12-20T21:35:27.224Z,74.00
2022-12-20T21:37:56.831Z,93.00
2022-12-20T21:40:26.437Z,74.00
2022-12-20T21:42:55.986Z,67.00
2022-12-20T21:45:25.572Z,67.33
2022-12-20T21:48:01.180Z,71.00
2022-12-20T21:50:32.657Z,73.00
2022-12-20T21:53:02.149Z,69.33
2022-12-20T21:55:31.668Z,69.00
2022-12-20T21:58:01.194Z,63.33
2022-12-20T22:00:30.770Z,73.33
2022-12-20T22:03:00.603Z,72.33
2022-12-20T22:05:30.483Z,70.67
2022-12-20T22:08:00.036Z,70.33
2022-12-20T22:10:29.561Z,69.00
2022-12-20T22:12:59.090Z,69.33
2022-12-20T22:15:28.644Z,69.67
2022-12-20T22:17:58.185Z,68.33
2022-12-20T22:20:27.704Z,67.33
2022-12-20T22:22:57.256Z,67.00
2022-12-20T22:25:26.924Z,69.67
2022-12-20T22:27:56.465Z,67.67
2022-12-20T22:30:25.977Z,67.67
2022-12-20T22:32:55.672Z,69.33
2022-12-20T22:35:25.727Z,73.00
2022-12-20T22:37:55.336Z,71.00
2022-12-20T22:40:24.876Z,70.33
2022-12-20T22:42:54.408Z,69.00
2022-12-20T22:45:24.208Z,67.00
2022-12-20T22:47:53.839Z,70.33
2022-12-20T22:50:23.344Z,67.00
2022-12-20T22:52:52.853Z,69.33
2022-12-20T22:55:22.366Z,66.33
2022-12-20T22:57:51.898Z,65.67
2022-12-20T23:00:21.760Z,68.67
2022-12-20T23:02:51.653Z,64.00
2022-12-20T23:05:20.540Z,63.50
2022-12-20T23:07:50.068Z,64.00
2022-12-20T23:10:38.534Z,68.00
2022-12-20T23:13:27.249Z,64.00
2022-12-20T23:15:57.004Z,69.33
2022-12-20T23:18:26.526Z,66.00
2022-12-20T23:21:15.108Z,63.00
2022-12-20T23:23:44.891Z,71.33
2022-12-20T23:26:17.127Z,61.00
2022-12-20T23:28:46.842Z,69.67
2022-12-20T23:31:16.570Z,76.00
2022-12-20T23:33:46.306Z,79.33
2022-12-20T23:36:15.841Z,70.33
2022-12-20T23:38:45.383Z,70.00
2022-12-20T23:41:16.405Z,65.67
2022-12-20T23:43:46.065Z,59.00
2022-12-20T23:46:18.869Z,68.33
2022-12-20T23:48:51.070Z,71.00
2022-12-20T23:51:22.489Z,61.67
2022-12-20T23:53:52.904Z,71.67
2022-12-20T23:56:23.640Z,72.00
2022-12-20T23:58:55.361Z,74.00
